Time;durP1;ratioP1;P1;durP2;ratioP2;P2;SDS_P1;SDS_P2;PMS_P1;PMS_P2;Temp;Humidity;BMP_temperature;BMP_pressure;BME280_temperature;BME280_humidity;BME280_pressure;Samples;Min_cycle;Max_cycle;Signal;HPM_P1;HPM_P2
2022/02/24 00:01:06;;;;;;;10.68;1.75;;;;;;;;;;5100633;28;20032;-74
2022/02/24 00:03:34;;;;;;;4.07;1.48;;;;;;;;;;5103692;28;20036;-74
2022/02/24 00:05:59;;;;;;;6.20;1.30;;;;;;;;;;5104595;28;20024;-74
2022/02/24 00:08:24;;;;;;;11.43;1.25;;;;;;;;;;5104402;28;20043;-73
2022/02/24 00:10:50;;;;;;;4.60;1.35;;;;;;;;;;5105495;28;20039;-73
2022/02/24 00:13:15;;;;;;;3.60;1.05;;;;;;;;;;5105885;28;20036;-75
2022/02/24 00:15:42;;;;;;;7.35;1.10;;;;;;;;;;5105453;28;20032;-73
2022/02/24 00:18:07;;;;;;;4.63;1.02;;;;;;;;;;5105642;28;20059;-74
2022/02/24 00:20:33;;;;;;;2.58;1.20;;;;;;;;;;5105409;28;20063;-74
2022/02/24 00:22:58;;;;;;;5.82;1.05;;;;;;;;;;5105727;28;20028;-74
2022/02/24 00:25:24;;;;;;;6.72;0.77;;;;;;;;;;5103774;28;20044;-73
2022/02/24 00:27:49;;;;;;;0.60;0.50;;;;;;;;;;5105372;28;20032;-74
2022/02/24 00:30:15;;;;;;;2.78;0.70;;;;;;;;;;5104173;28;20521;-74
2022/02/24 00:32:43;;;;;;;3.10;1.13;;;;;;;;;;5104630;28;20058;-74
2022/02/24 00:35:13;;;;;;;5.32;1.17;;;;;;;;;;5105245;28;20351;-73
2022/02/24 00:37:42;;;;;;;4.28;1.30;;;;;;;;;;5105166;28;20032;-76
2022/02/24 00:40:07;;;;;;;10.50;1.38;;;;;;;;;;5105390;28;20028;-72
2022/02/24 00:42:33;;;;;;;3.53;0.90;;;;;;;;;;5104000;28;20028;-72
2022/02/24 00:44:58;;;;;;;5.60;1.42;;;;;;;;;;5103668;28;20024;-72
2022/02/24 00:47:24;;;;;;;6.13;1.15;;;;;;;;;;5105397;28;20035;-75
2022/02/24 00:49:49;;;;;;;7.35;1.38;;;;;;;;;;5103774;28;20100;-73
2022/02/24 00:52:15;;;;;;;5.07;0.98;;;;;;;;;;5105593;28;20032;-71
2022/02/24 00:54:40;;;;;;;6.20;1.30;;;;;;;;;;5103806;28;20028;-72
2022/02/24 00:57:06;;;;;;;4.47;1.00;;;;;;;;;;5103499;28;20440;-73
2022/02/24 00:59:31;;;;;;;6.97;0.90;;;;;;;;;;5105003;28;20020;-70
2022/02/24 01:01:57;;;;;;;13.43;1.13;;;;;;;;;;5103692;28;20490;-72
2022/02/24 01:04:23;;;;;;;5.28;1.48;;;;;;;;;;5104754;28;20031;-72
2022/02/24 01:06:49;;;;;;;5.10;1.50;;;;;;;;;;5104981;28;20035;-71
2022/02/24 01:09:14;;;;;;;5.00;1.30;;;;;;;;;;5104122;28;20496;-73
2022/02/24 01:11:43;;;;;;;6.88;1.55;;;;;;;;;;5105035;28;20058;-74
2022/02/24 01:14:08;;;;;;;5.60;1.27;;;;;;;;;;5102208;28;20032;-72
2022/02/24 01:16:34;;;;;;;4.45;1.05;;;;;;;;;;5104121;28;20035;-72
2022/02/24 01:18:59;;;;;;;1.85;1.02;;;;;;;;;;5103501;28;20445;-72
2022/02/24 01:21:25;;;;;;;4.57;1.05;;;;;;;;;;5104127;28;20028;-74
2022/02/24 01:23:50;;;;;;;8.63;1.65;;;;;;;;;;5104130;28;20036;-73
2022/02/24 01:26:15;;;;;;;2.42;0.80;;;;;;;;;;5104408;28;20058;-74
2022/02/24 01:28:41;;;;;;;1.90;0.57;;;;;;;;;;5104232;28;20055;-73
2022/02/24 01:31:06;;;;;;;0.93;0.47;;;;;;;;;;5104023;28;20020;-73
2022/02/24 01:33:32;;;;;;;4.20;1.13;;;;;;;;;;5102552;28;20058;-73
2022/02/24 01:35:57;;;;;;;1.92;0.73;;;;;;;;;;5103900;28;20035;-73
2022/02/24 01:38:23;;;;;;;2.33;0.75;;;;;;;;;;5104185;28;20351;-73
2022/02/24 01:40:48;;;;;;;4.32;1.27;;;;;;;;;;5102436;28;20032;-73
2022/02/24 01:43:13;;;;;;;2.42;1.15;;;;;;;;;;5104099;28;20123;-73
2022/02/24 01:45:39;;;;;;;6.57;0.80;;;;;;;;;;5102378;28;20027;-74
2022/02/24 01:48:04;;;;;;;7.47;1.65;;;;;;;;;;5104187;28;20024;-74
2022/02/24 01:50:30;;;;;;;5.63;1.10;;;;;;;;;;5102564;28;20028;-73
2022/02/24 01:52:56;;;;;;;6.40;0.93;;;;;;;;;;5104206;28;20044;-73
2022/02/24 01:55:23;;;;;;;7.72;1.52;;;;;;;;;;5102273;28;20028;-74
2022/02/24 01:57:49;;;;;;;3.92;0.73;;;;;;;;;;5104042;28;20122;-73
2022/02/24 02:00:14;;;;;;;6.65;1.60;;;;;;;;;;5102043;28;20064;-74
2022/02/24 02:02:40;;;;;;;6.05;1.23;;;;;;;;;;5103665;28;20035;-73
2022/02/24 02:05:07;;;;;;;3.30;0.80;;;;;;;;;;5101882;28;20099;-72
2022/02/24 02:07:33;;;;;;;5.93;1.02;;;;;;;;;;5103525;28;20032;-72
2022/02/24 02:09:59;;;;;;;4.53;1.08;;;;;;;;;;5103239;28;20047;-73
2022/02/24 02:12:24;;;;;;;1.35;0.60;;;;;;;;;;5102207;28;20032;-72
2022/02/24 02:14:49;;;;;;;6.18;1.23;;;;;;;;;;5102011;28;20024;-72
2022/02/24 02:17:15;;;;;;;5.18;1.55;;;;;;;;;;5103518;28;20077;-74
2022/02/24 02:19:40;;;;;;;5.43;1.55;;;;;;;;;;5103502;28;20039;-73
2022/02/24 02:22:06;;;;;;;6.97;1.35;;;;;;;;;;5103550;28;20036;-71
2022/02/24 02:24:31;;;;;;;7.88;1.75;;;;;;;;;;5103090;28;20048;-72
2022/02/24 02:26:57;;;;;;;2.95;0.68;;;;;;;;;;5102037;28;20081;-73
2022/02/24 02:29:22;;;;;;;4.00;1.08;;;;;;;;;;5103180;28;20042;-73
2022/02/24 02:31:47;;;;;;;2.13;0.90;;;;;;;;;;5102997;28;20259;-72
2022/02/24 02:34:16;;;;;;;2.35;0.70;;;;;;;;;;5101414;28;20030;-73
2022/02/24 02:36:45;;;;;;;3.47;0.90;;;;;;;;;;5103021;28;20053;-73
2022/02/24 02:39:11;;;;;;;5.93;1.50;;;;;;;;;;5103128;28;20087;-73
2022/02/24 02:41:41;;;;;;;4.70;1.33;;;;;;;;;;5103038;28;20028;-73
2022/02/24 02:44:08;;;;;;;8.65;1.52;;;;;;;;;;5103241;28;20588;-72
2022/02/24 02:46:34;;;;;;;1.73;0.75;;;;;;;;;;5103089;28;20084;-74
2022/02/24 02:48:59;;;;;;;3.70;1.48;;;;;;;;;;5102905;28;20058;-73
2022/02/24 02:51:25;;;;;;;8.95;1.67;;;;;;;;;;5101410;28;20024;-73
2022/02/24 02:53:50;;;;;;;3.60;1.33;;;;;;;;;;5101505;28;20028;-73
2022/02/24 02:56:16;;;;;;;6.88;1.42;;;;;;;;;;5102693;28;20032;-74
2022/02/24 02:58:41;;;;;;;4.32;1.33;;;;;;;;;;5103198;28;20077;-73
2022/02/24 03:01:07;;;;;;;12.27;3.00;;;;;;;;;;5101391;28;20044;-73
2022/02/24 03:03:32;;;;;;;9.00;1.50;;;;;;;;;;5102406;28;20093;-73
2022/02/24 03:05:58;;;;;;;4.72;0.95;;;;;;;;;;5102668;28;20134;-75
2022/02/24 03:08:23;;;;;;;5.65;1.58;;;;;;;;;;5101278;28;20070;-73
2022/02/24 03:10:49;;;;;;;6.55;1.15;;;;;;;;;;5102883;28;20032;-74
2022/02/24 03:13:15;;;;;;;1.48;0.93;;;;;;;;;;5103016;28;20032;-74
2022/02/24 03:15:41;;;;;;;2.35;1.17;;;;;;;;;;5100954;28;20115;-73
2022/02/24 03:18:07;;;;;;;7.20;2.10;;;;;;;;;;5101099;28;20096;-73
2022/02/24 03:20:32;;;;;;;3.38;1.05;;;;;;;;;;5103087;28;20024;-73
2022/02/24 03:23:03;;;;;;;6.28;1.50;;;;;;;;;;5101423;28;20055;-74
2022/02/24 03:25:29;;;;;;;3.92;1.17;;;;;;;;;;5102293;28;20059;-74
2022/02/24 03:27:55;;;;;;;2.22;1.35;;;;;;;;;;5102607;28;20067;-75
2022/02/24 03:30:21;;;;;;;8.52;1.77;;;;;;;;;;5101276;28;20098;-75
2022/02/24 03:32:48;;;;;;;7.85;1.63;;;;;;;;;;5102670;28;20107;-74
2022/02/24 03:35:14;;;;;;;3.88;1.10;;;;;;;;;;5101286;28;20120;-74
2022/02/24 03:37:40;;;;;;;3.83;1.48;;;;;;;;;;5102357;28;20028;-75
2022/02/24 03:40:09;;;;;;;5.40;1.73;;;;;;;;;;5104997;28;20039;-73
2022/02/24 03:42:35;;;;;;;9.85;1.70;;;;;;;;;;5104324;28;20096;-74
2022/02/24 03:45:01;;;;;;;17.10;2.10;;;;;;;;;;5106342;28;20466;-75
2022/02/24 03:47:26;;;;;;;4.95;1.90;;;;;;;;;;5105261;28;20110;-74
2022/02/24 03:49:52;;;;;;;8.18;2.45;;;;;;;;;;5104630;28;20032;-73
2022/02/24 03:52:18;;;;;;;5.88;1.55;;;;;;;;;;5106270;28;20038;-75
2022/02/24 03:54:45;;;;;;;3.85;1.77;;;;;;;;;;5105705;28;20052;-75
2022/02/24 03:57:10;;;;;;;6.55;2.25;;;;;;;;;;5106443;28;20047;-75
2022/02/24 03:59:37;;;;;;;2.65;1.40;;;;;;;;;;5106369;28;20040;-74
2022/02/24 04:02:06;;;;;;;4.65;1.83;;;;;;;;;;5105869;28;20634;-73
2022/02/24 04:04:31;;;;;;;6.40;1.55;;;;;;;;;;5106039;28;20031;-75
2022/02/24 04:06:57;;;;;;;8.82;2.33;;;;;;;;;;5105750;28;20110;-74
2022/02/24 04:09:22;;;;;;;8.38;2.17;;;;;;;;;;5106012;28;20079;-74
2022/02/24 04:11:48;;;;;;;5.93;2.05;;;;;;;;;;5106125;28;20053;-75
2022/02/24 04:14:14;;;;;;;5.78;1.85;;;;;;;;;;5104161;28;20068;-74
2022/02/24 04:16:39;;;;;;;7.22;2.35;;;;;;;;;;5105623;28;20039;-74
2022/02/24 04:19:05;;;;;;;5.53;1.90;;;;;;;;;;5105507;28;20028;-73
2022/02/24 04:21:30;;;;;;;6.60;2.58;;;;;;;;;;5104164;28;20099;-74
2022/02/24 04:23:55;;;;;;;6.30;1.65;;;;;;;;;;5105624;28;20413;-75
2022/02/24 04:26:21;;;;;;;5.95;2.53;;;;;;;;;;5105244;28;20028;-74
2022/02/24 04:28:46;;;;;;;2.28;1.20;;;;;;;;;;5105396;28;20114;-74
2022/02/24 04:31:12;;;;;;;7.60;1.85;;;;;;;;;;5105465;28;20046;-74
2022/02/24 04:33:37;;;;;;;10.18;2.95;;;;;;;;;;5105412;28;20040;-73
2022/02/24 04:36:03;;;;;;;6.70;1.98;;;;;;;;;;5104962;28;20042;-73
2022/02/24 04:38:28;;;;;;;7.88;1.67;;;;;;;;;;5105356;28;20028;-74
2022/02/24 04:40:54;;;;;;;4.53;1.90;;;;;;;;;;5105455;28;20036;-74
2022/02/24 04:43:19;;;;;;;28.13;2.95;;;;;;;;;;5105368;28;20024;-74
2022/02/24 04:45:44;;;;;;;9.40;2.08;;;;;;;;;;5105347;28;20562;-74
2022/02/24 04:48:11;;;;;;;4.18;1.88;;;;;;;;;;5103921;28;20024;-75
2022/02/24 04:50:37;;;;;;;5.20;2.15;;;;;;;;;;5104725;28;20028;-73
2022/02/24 04:53:02;;;;;;;5.55;1.77;;;;;;;;;;5105164;28;20025;-71
2022/02/24 04:55:28;;;;;;;10.02;2.95;;;;;;;;;;5104855;28;20028;-74
2022/02/24 04:57:53;;;;;;;5.68;1.23;;;;;;;;;;5104964;28;20100;-75
2022/02/24 05:00:18;;;;;;;10.50;2.60;;;;;;;;;;5103339;28;20028;-76
2022/02/24 05:02:44;;;;;;;5.97;2.17;;;;;;;;;;5104968;28;20031;-74
2022/02/24 05:05:09;;;;;;;14.07;3.10;;;;;;;;;;5104899;28;20032;-74
2022/02/24 05:07:35;;;;;;;12.75;3.25;;;;;;;;;;5103394;28;20047;-75
2022/02/24 05:10:00;;;;;;;11.10;3.22;;;;;;;;;;5104606;28;20293;-74
2022/02/24 05:12:27;;;;;;;4.38;1.40;;;;;;;;;;5104672;28;20036;-74
2022/02/24 05:14:52;;;;;;;4.85;1.75;;;;;;;;;;5104512;28;20135;-75
2022/02/24 05:17:17;;;;;;;7.68;1.73;;;;;;;;;;5104777;28;20032;-73
2022/02/24 05:19:43;;;;;;;8.15;2.65;;;;;;;;;;5104227;28;20510;-74
2022/02/24 05:22:08;;;;;;;8.05;2.38;;;;;;;;;;5103424;28;20035;-73
2022/02/24 05:24:34;;;;;;;10.88;2.42;;;;;;;;;;5104080;28;20059;-75
2022/02/24 05:26:59;;;;;;;7.50;2.55;;;;;;;;;;5104776;28;20113;-74
2022/02/24 05:29:24;;;;;;;10.88;2.88;;;;;;;;;;5104546;28;20035;-74
2022/02/24 05:31:50;;;;;;;9.40;1.77;;;;;;;;;;5104246;28;20583;-74
2022/02/24 05:34:15;;;;;;;6.68;1.90;;;;;;;;;;5104224;28;20054;-74
2022/02/24 05:36:40;;;;;;;9.52;2.42;;;;;;;;;;5104180;28;20036;-75
2022/02/24 05:39:06;;;;;;;11.93;2.78;;;;;;;;;;5102746;28;20036;-74
2022/02/24 05:41:31;;;;;;;4.07;1.40;;;;;;;;;;5102824;28;20032;-75
2022/02/24 05:43:57;;;;;;;8.93;2.47;;;;;;;;;;5104218;28;20036;-75
2022/02/24 05:46:22;;;;;;;16.88;2.97;;;;;;;;;;5103690;28;20058;-75
2022/02/24 05:48:47;;;;;;;9.85;1.95;;;;;;;;;;5103921;28;20391;-74
2022/02/24 05:51:13;;;;;;;6.72;1.55;;;;;;;;;;5103814;28;20067;-75
2022/02/24 05:53:38;;;;;;;10.75;2.08;;;;;;;;;;5104173;28;20034;-72
2022/02/24 05:56:04;;;;;;;8.48;2.90;;;;;;;;;;5102413;28;20024;-73
2022/02/24 05:58:30;;;;;;;7.18;1.88;;;;;;;;;;5102586;28;20553;-74
2022/02/24 06:00:56;;;;;;;7.38;2.63;;;;;;;;;;5103486;28;20533;-75
2022/02/24 06:03:21;;;;;;;7.20;2.15;;;;;;;;;;5102540;28;20053;-74
2022/02/24 06:05:47;;;;;;;13.30;2.83;;;;;;;;;;5102464;28;20397;-74
2022/02/24 06:08:12;;;;;;;12.75;1.75;;;;;;;;;;5102491;28;20062;-73
2022/02/24 06:10:38;;;;;;;12.70;2.65;;;;;;;;;;5102010;28;20035;-74
2022/02/24 06:13:03;;;;;;;11.70;2.85;;;;;;;;;;5102330;28;20129;-72
2022/02/24 06:15:30;;;;;;;9.13;2.45;;;;;;;;;;5103844;28;20105;-74
2022/02/24 06:17:55;;;;;;;8.32;3.08;;;;;;;;;;5103704;28;20024;-74
2022/02/24 06:20:20;;;;;;;10.80;2.53;;;;;;;;;;5103512;28;20431;-73
2022/02/24 06:22:47;;;;;;;8.18;2.35;;;;;;;;;;5103692;28;20032;-74
2022/02/24 06:25:12;;;;;;;8.38;2.35;;;;;;;;;;5103419;28;20568;-74
2022/02/24 06:27:38;;;;;;;9.73;2.75;;;;;;;;;;5103700;28;20029;-74
2022/02/24 06:30:04;;;;;;;7.13;2.35;;;;;;;;;;5103545;28;20036;-74
2022/02/24 06:32:30;;;;;;;6.38;1.70;;;;;;;;;;5103372;28;20088;-74
2022/02/24 06:34:56;;;;;;;9.35;2.95;;;;;;;;;;5103511;28;20028;-74
2022/02/24 06:37:21;;;;;;;7.55;1.65;;;;;;;;;;5102093;28;20092;-75
2022/02/24 06:39:47;;;;;;;13.48;2.05;;;;;;;;;;5103190;28;20050;-74
2022/02/24 06:42:13;;;;;;;12.40;2.67;;;;;;;;;;5103301;28;20394;-74
2022/02/24 06:44:39;;;;;;;9.60;2.58;;;;;;;;;;5103156;28;20054;-73
2022/02/24 06:47:04;;;;;;;7.82;2.08;;;;;;;;;;5103027;28;20093;-73
2022/02/24 06:49:29;;;;;;;7.03;2.13;;;;;;;;;;5101636;28;20466;-73
2022/02/24 06:51:57;;;;;;;7.13;2.40;;;;;;;;;;5103126;28;20105;-75
2022/02/24 06:54:23;;;;;;;7.70;2.10;;;;;;;;;;5101452;28;20048;-77
2022/02/24 06:56:49;;;;;;;10.90;3.25;;;;;;;;;;5103074;28;20050;-74
2022/02/24 06:59:14;;;;;;;9.50;2.55;;;;;;;;;;5102111;28;20036;-73
2022/02/24 07:01:39;;;;;;;13.18;3.05;;;;;;;;;;5101819;28;20473;-75
2022/02/24 07:04:05;;;;;;;6.78;2.60;;;;;;;;;;5101568;28;20461;-74
2022/02/24 07:06:30;;;;;;;4.25;1.60;;;;;;;;;;5102551;28;20020;-74
2022/02/24 07:08:56;;;;;;;7.80;2.42;;;;;;;;;;5100981;28;20397;-73
2022/02/24 07:11:23;;;;;;;10.00;2.35;;;;;;;;;;5101158;28;20050;-73
2022/02/24 07:13:48;;;;;;;11.70;2.95;;;;;;;;;;5106490;28;20031;-73
2022/02/24 07:16:14;;;;;;;5.32;2.28;;;;;;;;;;5107043;28;20087;-74
2022/02/24 07:18:39;;;;;;;8.38;2.72;;;;;;;;;;5107214;28;20028;-72
2022/02/24 07:21:05;;;;;;;12.00;2.78;;;;;;;;;;5107278;28;20028;-74
2022/02/24 07:23:30;;;;;;;10.55;2.70;;;;;;;;;;5106930;28;20032;-74
2022/02/24 07:25:58;;;;;;;5.90;2.63;;;;;;;;;;5106994;28;20390;-73
2022/02/24 07:28:23;;;;;;;14.68;3.13;;;;;;;;;;5107289;28;20027;-73
2022/02/24 07:30:49;;;;;;;4.88;1.92;;;;;;;;;;5106785;28;20036;-73
2022/02/24 07:33:15;;;;;;;11.48;3.22;;;;;;;;;;5105341;28;20031;-73
2022/02/24 07:35:41;;;;;;;6.35;1.88;;;;;;;;;;5105169;28;20063;-74
2022/02/24 07:38:07;;;;;;;8.45;2.65;;;;;;;;;;5106848;28;20073;-75
2022/02/24 07:40:32;;;;;;;8.25;2.75;;;;;;;;;;5105354;28;20066;-73
2022/02/24 07:42:57;;;;;;;8.57;2.83;;;;;;;;;;5106750;28;20412;-72
2022/02/24 07:45:23;;;;;;;13.07;3.58;;;;;;;;;;5106497;28;20073;-74
2022/02/24 07:47:48;;;;;;;12.25;3.05;;;;;;;;;;5106629;28;20028;-72
2022/02/24 07:50:14;;;;;;;7.20;2.10;;;;;;;;;;5104959;28;20596;-75
2022/02/24 07:52:44;;;;;;;9.10;3.40;;;;;;;;;;5105211;28;20020;-73
2022/02/24 07:55:10;;;;;;;8.82;2.60;;;;;;;;;;5104999;28;20605;-73
2022/02/24 07:57:41;;;;;;;8.73;2.95;;;;;;;;;;5104980;28;20028;-74
2022/02/24 08:00:13;;;;;;;8.52;2.17;;;;;;;;;;5106336;28;20053;-74
2022/02/24 08:02:38;;;;;;;13.95;2.80;;;;;;;;;;5106279;28;20028;-74
2022/02/24 08:05:03;;;;;;;4.72;2.17;;;;;;;;;;5105761;28;20039;-73
2022/02/24 08:07:29;;;;;;;10.85;2.60;;;;;;;;;;5104978;28;20032;-74
2022/02/24 08:09:54;;;;;;;11.77;2.88;;;;;;;;;;5106028;28;20058;-74
2022/02/24 08:18:16;;;;;;;9.35;2.58;;;;;;;;;;5106188;28;20088;-75
2022/02/24 08:20:41;;;;;;;15.90;3.13;;;;;;;;;;5091411;28;20036;-76
2022/02/24 08:23:07;;;;;;;10.73;3.17;;;;;;;;;;5105892;28;20040;-74
2022/02/24 08:25:33;;;;;;;4.68;1.88;;;;;;;;;;5105507;28;20073;-74
2022/02/24 08:27:59;;;;;;;8.40;1.77;;;;;;;;;;5106111;28;20058;-75
2022/02/24 08:30:30;;;;;;;8.02;3.05;;;;;;;;;;5106609;28;20304;-74
2022/02/24 08:32:56;;;;;;;12.55;2.60;;;;;;;;;;5105048;28;20036;-74
2022/02/24 08:35:24;;;;;;;7.00;2.47;;;;;;;;;;5105398;28;20043;-74
2022/02/24 08:37:50;;;;;;;8.07;2.55;;;;;;;;;;5105454;28;20466;-74
2022/02/24 08:40:17;;;;;;;13.25;2.45;;;;;;;;;;5105647;28;20020;-74
2022/02/24 08:42:43;;;;;;;5.88;2.00;;;;;;;;;;5105553;28;20032;-74
2022/02/24 08:45:09;;;;;;;12.13;2.80;;;;;;;;;;5105173;28;20043;-74
2022/02/24 08:47:35;;;;;;;15.70;2.78;;;;;;;;;;5105368;28;20477;-74
2022/02/24 08:50:01;;;;;;;12.15;3.85;;;;;;;;;;5104020;28;20046;-74
2022/02/24 08:52:27;;;;;;;8.10;2.50;;;;;;;;;;5105160;28;20081;-75
2022/02/24 08:54:53;;;;;;;13.02;3.55;;;;;;;;;;5105240;28;20024;-74
2022/02/24 08:57:18;;;;;;;9.90;2.75;;;;;;;;;;5105322;28;20027;-76
2022/02/24 08:59:43;;;;;;;12.25;3.08;;;;;;;;;;5103827;28;20027;-73
2022/02/24 09:02:09;;;;;;;7.05;1.80;;;;;;;;;;5105318;28;20082;-75
2022/02/24 09:04:34;;;;;;;5.45;2.33;;;;;;;;;;5105324;28;20036;-76
2022/02/24 09:06:59;;;;;;;7.88;2.15;;;;;;;;;;5103816;28;20039;-79
2022/02/24 09:09:28;;;;;;;13.82;2.72;;;;;;;;;;5104725;28;20051;-77
2022/02/24 09:11:53;;;;;;;13.77;3.35;;;;;;;;;;5105247;28;20028;-76
2022/02/24 09:14:19;;;;;;;9.20;2.50;;;;;;;;;;5103324;28;20028;-77
2022/02/24 09:16:45;;;;;;;5.15;1.60;;;;;;;;;;5103438;28;20024;-76
2022/02/24 09:19:11;;;;;;;13.45;3.05;;;;;;;;;;5103370;28;20038;-77
2022/02/24 09:21:40;;;;;;;9.73;3.15;;;;;;;;;;5104938;28;20462;-77
2022/02/24 09:24:07;;;;;;;15.30;3.83;;;;;;;;;;5104378;28;20040;-76
2022/02/24 09:26:33;;;;;;;4.30;2.08;;;;;;;;;;5103331;28;20062;-76
2022/02/24 09:28:59;;;;;;;17.20;3.30;;;;;;;;;;5104903;28;20051;-77
2022/02/24 09:31:25;;;;;;;9.02;2.38;;;;;;;;;;5103477;28;20061;-76
2022/02/24 09:33:50;;;;;;;8.63;2.40;;;;;;;;;;5103211;28;20051;-75
2022/02/24 09:36:15;;;;;;;11.48;3.13;;;;;;;;;;5103521;28;20028;-75
2022/02/24 09:38:41;;;;;;;6.38;2.10;;;;;;;;;;5104658;28;20031;-76
2022/02/24 09:41:08;;;;;;;5.82;2.03;;;;;;;;;;5104498;28;20091;-75
2022/02/24 09:43:36;;;;;;;14.48;3.53;;;;;;;;;;5102974;28;20035;-76
2022/02/24 09:46:07;;;;;;;9.27;2.17;;;;;;;;;;5103275;28;20035;-75
2022/02/24 09:48:36;;;;;;;7.15;2.45;;;;;;;;;;5103156;28;20123;-76
2022/02/24 09:51:04;;;;;;;10.10;2.65;;;;;;;;;;5104427;28;20088;-75
2022/02/24 09:53:30;;;;;;;4.85;1.60;;;;;;;;;;5104259;28;20024;-76
2022/02/24 09:55:57;;;;;;;9.00;2.83;;;;;;;;;;5103781;28;20028;-76
2022/02/24 09:58:23;;;;;;;11.43;3.42;;;;;;;;;;5102638;28;20047;-76
2022/02/24 10:00:49;;;;;;;6.68;2.78;;;;;;;;;;5104030;28;20158;-76
2022/02/24 10:03:36;;;;;;;15.68;3.40;;;;;;;;;;5103976;28;20542;-76
2022/02/24 10:06:07;;;;;;;7.63;2.40;;;;;;;;;;5103698;28;20454;-75
2022/02/24 10:08:41;;;;;;;6.22;2.50;;;;;;;;;;5104165;28;20028;-76
2022/02/24 10:11:20;;;;;;;13.88;3.65;;;;;;;;;;5102363;28;20032;-77
2022/02/24 10:14:23;;;;;;;12.85;3.63;;;;;;;;;;5103819;28;20020;-76
2022/02/24 10:17:02;;;;;;;14.85;3.38;;;;;;;;;;5060562;28;20052;-76
2022/02/24 10:19:36;;;;;;;9.20;2.90;;;;;;;;;;5098977;28;20130;-76
2022/02/24 10:22:18;;;;;;;11.23;2.95;;;;;;;;;;5103802;28;20028;-76
2022/02/24 10:24:45;;;;;;;8.90;2.88;;;;;;;;;;5103418;28;20078;-76
2022/02/24 10:27:16;;;;;;;5.55;1.80;;;;;;;;;;5103493;28;20107;-76
2022/02/24 10:30:01;;;;;;;13.32;3.10;;;;;;;;;;5103295;28;20107;-77
2022/02/24 10:32:29;;;;;;;12.23;2.65;;;;;;;;;;5103541;28;20038;-76
2022/02/24 10:34:57;;;;;;;6.97;1.70;;;;;;;;;;5103118;28;20069;-76
2022/02/24 10:37:29;;;;;;;9.50;2.63;;;;;;;;;;5103574;28;20024;-76
2022/02/24 10:40:03;;;;;;;8.98;3.17;;;;;;;;;;5103294;28;20359;-76
2022/02/24 10:42:28;;;;;;;15.13;3.60;;;;;;;;;;5103277;28;20020;-76
2022/02/24 10:45:17;;;;;;;7.63;2.45;;;;;;;;;;5101731;28;20028;-76
2022/02/24 10:48:00;;;;;;;6.68;1.95;;;;;;;;;;5100556;28;20040;-76
2022/02/24 10:50:53;;;;;;;11.82;4.15;;;;;;;;;;5101881;28;20061;-76
2022/02/24 10:53:20;;;;;;;14.98;3.50;;;;;;;;;;5103132;28;20111;-75
2022/02/24 10:56:00;;;;;;;12.95;2.95;;;;;;;;;;5103144;28;20039;-75
2022/02/24 10:58:28;;;;;;;7.30;2.50;;;;;;;;;;5103333;28;20377;-75
2022/02/24 11:01:09;;;;;;;10.20;2.95;;;;;;;;;;5103168;28;20026;-76
2022/02/24 11:03:35;;;;;;;13.32;3.30;;;;;;;;;;5101806;28;20032;-75
2022/02/24 11:06:06;;;;;;;7.63;2.53;;;;;;;;;;5103148;28;20035;-75
2022/02/24 11:08:33;;;;;;;11.38;2.75;;;;;;;;;;5101777;28;20028;-76
2022/02/24 11:10:59;;;;;;;12.25;3.38;;;;;;;;;;5103086;28;20058;-76
2022/02/24 11:13:26;;;;;;;8.05;2.30;;;;;;;;;;5102996;28;20049;-75
2022/02/24 11:15:55;;;;;;;12.57;3.30;;;;;;;;;;5101466;28;20036;-75
2022/02/24 11:18:21;;;;;;;7.95;2.20;;;;;;;;;;5101507;28;20032;-76
2022/02/24 11:20:47;;;;;;;9.90;3.10;;;;;;;;;;5102902;28;20028;-74
2022/02/24 11:23:16;;;;;;;11.23;3.60;;;;;;;;;;5102925;28;20078;-75
2022/02/24 11:26:00;;;;;;;10.45;2.80;;;;;;;;;;5101206;28;20131;-75
2022/02/24 11:28:31;;;;;;;10.48;2.85;;;;;;;;;;5103024;28;20246;-75
2022/02/24 11:31:07;;;;;;;9.27;3.58;;;;;;;;;;5102862;28;20065;-74
2022/02/24 11:33:33;;;;;;;12.30;3.67;;;;;;;;;;5102798;28;20087;-74
2022/02/24 11:36:16;;;;;;;8.98;2.53;;;;;;;;;;5102834;28;20051;-75
2022/02/24 11:39:02;;;;;;;7.10;2.00;;;;;;;;;;5102815;28;20052;-75
2022/02/24 11:41:28;;;;;;;8.30;2.15;;;;;;;;;;5102420;28;20035;-75
2022/02/24 11:43:54;;;;;;;14.23;3.47;;;;;;;;;;5101719;28;20031;-75
2022/02/24 11:46:20;;;;;;;9.02;2.78;;;;;;;;;;5101285;28;20032;-75
2022/02/24 11:48:45;;;;;;;10.73;3.08;;;;;;;;;;5102532;28;20115;-75
2022/02/24 11:51:19;;;;;;;9.15;2.78;;;;;;;;;;5102574;28;20050;-76
2022/02/24 11:53:45;;;;;;;;;;;;;;;;;;5102971;28;20024;-75
2022/02/24 11:56:14;;;;;;;6.15;1.90;;;;;;;;;;5100950;28;19912;-75
2022/02/24 11:58:45;;;;;;;11.50;4.18;;;;;;;;;;5103555;28;20059;-75
2022/02/24 12:01:42;;;;;;;7.38;2.00;;;;;;;;;;5104677;28;20032;-75
2022/02/24 12:04:26;;;;;;;13.98;3.63;;;;;;;;;;5106157;28;20426;-75
2022/02/24 12:06:53;;;;;;;6.82;1.98;;;;;;;;;;5106068;28;20024;-76
2022/02/24 12:09:26;;;;;;;11.15;3.05;;;;;;;;;;5105880;28;20036;-75
2022/02/24 12:11:56;;;;;;;5.50;2.60;;;;;;;;;;5104785;28;20039;-75
2022/02/24 12:14:22;;;;;;;10.75;2.97;;;;;;;;;;5106037;28;20024;-75
2022/02/24 12:17:05;;;;;;;11.90;2.53;;;;;;;;;;5105795;28;20036;-75
2022/02/24 12:19:54;;;;;;;8.50;2.45;;;;;;;;;;5104204;28;20111;-75
2022/02/24 12:22:31;;;;;;;7.93;3.25;;;;;;;;;;5105960;28;20036;-75
2022/02/24 12:25:05;;;;;;;5.05;2.22;;;;;;;;;;5104053;28;20060;-76
2022/02/24 12:27:55;;;;;;;6.25;2.17;;;;;;;;;;5104258;28;20063;-76
2022/02/24 12:30:27;;;;;;;11.77;3.33;;;;;;;;;;5103502;28;20115;-75
2022/02/24 12:33:07;;;;;;;8.30;2.75;;;;;;;;;;5105634;28;20035;-75
2022/02/24 12:35:37;;;;;;;7.38;2.78;;;;;;;;;;5105886;28;20036;-75
2022/02/24 12:38:04;;;;;;;6.80;2.42;;;;;;;;;;5105574;28;20316;-73
2022/02/24 12:40:30;;;;;;;9.63;3.33;;;;;;;;;;5105437;28;20024;-73
2022/02/24 12:42:57;;;;;;;9.48;2.92;;;;;;;;;;5105755;28;20157;-74
2022/02/24 12:45:24;;;;;;;12.65;3.78;;;;;;;;;;5105382;28;20035;-73
2022/02/24 12:47:51;;;;;;;9.10;3.40;;;;;;;;;;5105656;28;20034;-73
2022/02/24 12:50:36;;;;;;;10.23;2.72;;;;;;;;;;5103880;28;20043;-73
2022/02/24 12:53:06;;;;;;;8.77;2.40;;;;;;;;;;5105614;28;20024;-75
2022/02/24 12:55:32;;;;;;;9.13;3.20;;;;;;;;;;5105057;28;20462;-75
2022/02/24 12:57:57;;;;;;;9.70;2.38;;;;;;;;;;5105007;28;20028;-75
2022/02/24 13:00:23;;;;;;;9.00;3.35;;;;;;;;;;5104097;28;20016;-75
2022/02/24 13:02:48;;;;;;;15.65;2.50;;;;;;;;;;5105055;28;20502;-75
2022/02/24 13:05:14;;;;;;;5.93;2.53;;;;;;;;;;5104964;28;20404;-74
2022/02/24 13:10:37;;;;;;;7.47;2.95;;;;;;;;;;5104062;28;20034;-74
2022/02/24 13:13:05;;;;;;;11.73;3.60;;;;;;;;;;5105034;28;20031;-74
2022/02/24 13:15:32;;;;;;;9.43;3.13;;;;;;;;;;5104914;28;20028;-74
2022/02/24 13:17:59;;;;;;;6.30;2.28;;;;;;;;;;5104768;28;20519;-74
2022/02/24 13:20:29;;;;;;;5.15;1.80;;;;;;;;;;5104901;28;20027;-74
2022/02/24 13:22:55;;;;;;;11.10;2.85;;;;;;;;;;5103315;28;20489;-74
2022/02/24 13:25:33;;;;;;;11.57;3.05;;;;;;;;;;5104428;28;20048;-74
2022/02/24 13:27:59;;;;;;;15.70;3.58;;;;;;;;;;5104792;28;20028;-74
2022/02/24 13:30:30;;;;;;;14.98;4.75;;;;;;;;;;5104547;28;20020;-74
2022/02/24 13:33:04;;;;;;;9.48;3.10;;;;;;;;;;5104875;28;20031;-74
2022/02/24 13:35:38;;;;;;;7.63;3.03;;;;;;;;;;5103256;28;20292;-74
2022/02/24 13:38:06;;;;;;;11.65;3.90;;;;;;;;;;5103161;28;20020;-74
2022/02/24 13:40:32;;;;;;;7.50;3.13;;;;;;;;;;5104341;28;20055;-74
2022/02/24 13:43:05;;;;;;;9.98;3.42;;;;;;;;;;5104614;28;20020;-74
2022/02/24 13:45:32;;;;;;;15.55;4.50;;;;;;;;;;5104284;28;20027;-74
2022/02/24 13:47:59;;;;;;;15.55;3.45;;;;;;;;;;5104253;28;20123;-74
2022/02/24 13:50:48;;;;;;;10.20;3.25;;;;;;;;;;5102782;28;20024;-74
2022/02/24 13:53:25;;;;;;;12.30;3.80;;;;;;;;;;5104431;28;20073;-74
2022/02/24 13:56:02;;;;;;;13.77;3.72;;;;;;;;;;5104254;28;20020;-74
2022/02/24 13:58:30;;;;;;;13.13;3.42;;;;;;;;;;5104219;28;20296;-74
2022/02/24 14:01:07;;;;;;;10.65;3.95;;;;;;;;;;5102635;28;20242;-74
2022/02/24 14:03:39;;;;;;;10.60;3.53;;;;;;;;;;5104226;28;20020;-74
2022/02/24 14:06:09;;;;;;;13.70;4.18;;;;;;;;;;5104268;28;20049;-74
2022/02/24 14:08:39;;;;;;;9.82;3.45;;;;;;;;;;5104200;28;20028;-74
2022/02/24 14:11:21;;;;;;;14.88;4.22;;;;;;;;;;5104020;28;20028;-74
2022/02/24 14:13:47;;;;;;;11.32;3.50;;;;;;;;;;5102530;28;20020;-74
2022/02/24 14:16:13;;;;;;;5.80;2.40;;;;;;;;;;5102245;28;20016;-74
2022/02/24 14:18:40;;;;;;;12.68;4.10;;;;;;;;;;5103898;28;20016;-74
2022/02/24 14:21:11;;;;;;;10.05;3.45;;;;;;;;;;5103507;28;20032;-74
2022/02/24 14:23:37;;;;;;;11.30;3.85;;;;;;;;;;5103717;28;20048;-75
2022/02/24 14:26:03;;;;;;;12.95;4.65;;;;;;;;;;5103641;28;20028;-74
2022/02/24 14:28:29;;;;;;;4.95;2.35;;;;;;;;;;5103750;28;20038;-74
2022/02/24 14:30:55;;;;;;;9.35;3.35;;;;;;;;;;5103591;28;20079;-74
2022/02/24 14:33:20;;;;;;;14.07;3.60;;;;;;;;;;5102275;28;20473;-74
2022/02/24 14:35:46;;;;;;;9.60;2.42;;;;;;;;;;5103489;28;20076;-74
2022/02/24 14:38:12;;;;;;;7.35;4.07;;;;;;;;;;5103418;28;20015;-74
2022/02/24 14:40:39;;;;;;;9.95;3.50;;;;;;;;;;5103238;28;20027;-74
2022/02/24 14:43:05;;;;;;;10.30;4.03;;;;;;;;;;5103915;28;20519;-75
2022/02/24 14:45:32;;;;;;;12.07;3.72;;;;;;;;;;5103305;28;20039;-74
2022/02/24 14:47:59;;;;;;;13.23;2.63;;;;;;;;;;5103522;28;20446;-75
2022/02/24 14:50:25;;;;;;;15.90;4.22;;;;;;;;;;5103330;28;20057;-74